Krabi, Thailand

11:54 AM ICT on August 24, 2016 (GMT +0700)
Ao Nang, Krabi | | Change Station

Elev 177 ft 8.05 °N, 98.84 °E | Updated 2 minutes ago

Mostly Cloudy
Mostly Cloudy
87.4 °F
Feels Like 103 °F
N
1.1
Wind Variable Wind from ESE
Gusts 3.0 mph

Today
High -- | Low -- °F
--% Chance of Precip.
Yesterday
High -- | Low -- °F
Precip. -- in
Pressure 29.77 in
Visibility 5.0 miles
Clouds Scattered Clouds 1800 ft
Mostly Cloudy 10000 ft
Heat Index 103 °F
Dew Point 80 °F
Humidity 78%
Rainfall 0.00 in
Snow Depth Not available.
6:16 AM 6:36 PM
Waning Gibbous, 61% visible
METAR VTSP 240430Z 30009KT 8000 SCT018 BKN100 29/25 Q1008 NOSIG
Pressure 29.77 in
Visibility 5.0 miles
Clouds Scattered Clouds 1800 ft
Mostly Cloudy 10000 ft
Heat Index 103 °F
Dew Point 80 °F
Humidity 78%
Rainfall 0.00 in
Snow Depth Not available.
6:16 AM 6:36 PM
Waning Gibbous, 61% visible
METAR VTSP 240430Z 30009KT 8000 SCT018 BKN100 29/25 Q1008 NOSIG

10-Day Weather Forecast

No radar image for this location.
×

Almanac

Astronomy

Aug. 24, 2016 Rise Set
Actual Time
Civil Twilight
Nautical Twilight
Astronomical Twilight
Moon
Length of Visible Light
Length of Day
Tomorrow will be .
, % of the Moon is Illuminated

Today's Extremes

Country Highs Country Lows

Community

WunderPhotos

Upload Photos

1,934,554 photos uploaded!

WunderBlog® & News

Nearby

Air Quality

  Air Quality AQ Index Pollutant
Not available.

Snow Depth

Station Depth Elevation

Earthquake Activity

City Distance Mag. Time & Date
Minimum magnitude displayed is 2.5.

Coastal Water Temperatures

Place Temperature

Stations

Nearby Weather Stations

Station Location Temp. Windchill Dew Point Humidity Wind Precip. Elev Updated Type